Time;durP1;ratioP1;P1;durP2;ratioP2;P2;SDS_P1;SDS_P2;PMS_P1;PMS_P2;Temp;Humidity;BMP_temperature;BMP_pressure;BME280_temperature;BME280_humidity;BME280_pressure;Samples;Min_cycle;Max_cycle;Signal;HPM_P1;HPM_P2
2022/05/26 00:01:53;;;;;;;3.17;1.00;;;;;;;15.52;60.05;100349.31;5066014;28;20235;-59
2022/05/26 00:04:19;;;;;;;1.60;0.90;;;;;;;15.56;59.67;100346.41;5052559;28;20276;-59
2022/05/26 00:06:44;;;;;;;1.77;1.00;;;;;;;15.62;59.67;100353.75;5052175;28;20234;-60
2022/05/26 00:09:10;;;;;;;2.73;1.00;;;;;;;15.52;60.07;100349.31;5051988;28;20636;-59
2022/05/26 00:11:37;;;;;;;2.10;0.90;;;;;;;15.51;59.92;100355.47;5062146;28;20283;-59
2022/05/26 00:14:07;;;;;;;1.47;0.90;;;;;;;15.50;59.82;100357.22;5046043;28;20518;-60
2022/05/26 00:16:41;;;;;;;1.93;0.70;;;;;;;15.39;60.37;100357.97;5052034;28;20178;-60
2022/05/26 00:19:07;;;;;;;3.20;0.80;;;;;;;15.33;60.25;100356.66;5036234;28;20294;-59
2022/05/26 00:21:33;;;;;;;3.90;1.20;;;;;;;15.27;60.81;100364.84;5053346;28;20229;-60
2022/05/26 00:23:58;;;;;;;1.97;0.70;;;;;;;15.21;60.99;100365.28;5041701;28;20202;-59
2022/05/26 00:26:24;;;;;;;3.30;0.97;;;;;;;15.20;61.46;100361.03;5031809;28;20636;-60
2022/05/26 00:28:50;;;;;;;0.90;0.70;;;;;;;15.18;61.02;100360.31;5048356;28;20502;-59
2022/05/26 00:31:15;;;;;;;0.70;0.60;;;;;;;15.14;60.78;100354.53;5050916;28;20655;-59
2022/05/26 00:33:41;;;;;;;2.53;1.00;;;;;;;15.28;60.34;100360.47;5045743;28;20256;-59
2022/05/26 00:36:09;;;;;;;3.37;0.80;;;;;;;15.16;60.33;100362.19;5035333;28;20178;-59
2022/05/26 00:38:35;;;;;;;1.60;0.97;;;;;;;15.18;60.00;100368.06;5047298;28;20194;-59
2022/05/26 00:41:03;;;;;;;0.83;0.70;;;;;;;15.29;59.97;100360.41;5048705;28;20311;-59
2022/05/26 00:43:29;;;;;;;1.27;0.70;;;;;;;15.18;59.96;100365.47;5044738;28;20273;-59
2022/05/26 00:45:58;;;;;;;3.17;0.83;;;;;;;15.27;59.83;100369.19;5051996;28;20174;-59
2022/05/26 00:48:27;;;;;;;2.00;1.07;;;;;;;15.33;59.86;100368.75;5050309;28;20182;-59
2022/05/26 00:50:59;;;;;;;0.50;0.50;;;;;;;15.25;59.62;100368.50;5041102;28;20229;-58
2022/05/26 00:53:39;;;;;;;1.90;0.80;;;;;;;15.23;59.50;100372.94;5034566;28;20573;-59
2022/05/26 00:56:23;;;;;;;1.20;0.90;;;;;;;15.14;59.25;100364.91;5054281;28;20197;-58
2022/05/26 00:58:55;;;;;;;2.53;0.87;;;;;;;15.12;59.38;100363.31;5067052;28;20201;-59
2022/05/26 01:01:20;;;;;;;0.60;0.50;;;;;;;15.25;59.37;100358.13;5071245;28;20230;-59
2022/05/26 01:03:53;;;;;;;0.70;0.70;;;;;;;15.20;59.55;100365.41;5063812;28;20177;-58
2022/05/26 01:06:24;;;;;;;1.97;1.20;;;;;;;15.14;59.52;100364.91;5066625;28;20184;-59
2022/05/26 01:09:02;;;;;;;4.10;0.80;;;;;;;15.13;59.70;100372.75;5060952;28;20204;-58
2022/05/26 01:11:31;;;;;;;1.97;0.80;;;;;;;15.26;59.11;100368.38;5052175;28;20240;-58
2022/05/26 01:14:25;;;;;;;0.70;0.67;;;;;;;15.20;58.69;100370.56;5045413;28;20169;-58
2022/05/26 01:17:03;;;;;;;1.90;0.80;;;;;;;15.14;58.78;100375.25;5050097;28;20229;-58
2022/05/26 01:20:16;;;;;;;1.60;0.80;;;;;;;15.19;58.59;100384.47;5050941;28;20217;-58
2022/05/26 01:22:57;;;;;;;2.00;0.80;;;;;;;15.16;58.80;100370.78;4938365;28;20646;-60
2022/05/26 01:25:59;;;;;;;2.87;0.77;;;;;;;15.25;58.33;100374.50;5049624;28;20633;-60
2022/05/26 01:28:55;;;;;;;4.13;0.90;;;;;;;15.24;58.81;100375.41;5031196;28;20197;-59
2022/05/26 01:31:40;;;;;;;2.37;0.90;;;;;;;15.20;59.13;100370.56;5042013;28;20228;-58
2022/05/26 01:34:28;;;;;;;1.10;0.67;;;;;;;15.26;59.20;100373.56;5033056;28;20206;-58
2022/05/26 01:37:35;;;;;;;2.73;0.77;;;;;;;15.20;59.34;100368.00;5029399;28;20182;-60
2022/05/26 01:40:26;;;;;;;1.47;0.80;;;;;;;15.24;59.76;100364.25;5030748;28;20308;-59
2022/05/26 01:43:16;;;;;;;0.83;0.77;;;;;;;15.21;59.72;100369.63;5007411;28;20385;-59
2022/05/26 01:46:07;;;;;;;3.73;0.80;;;;;;;15.04;60.44;100368.22;5049720;28;20200;-59
2022/05/26 01:48:54;;;;;;;5.57;0.93;;;;;;;15.10;60.54;100368.63;5051237;28;20182;-59
2022/05/26 01:51:38;;;;;;;0.77;0.70;;;;;;;14.96;61.12;100364.38;5052891;28;20228;-59
2022/05/26 01:54:29;;;;;;;1.07;0.70;;;;;;;15.00;60.10;100367.59;5055487;28;20193;-60
2022/05/26 01:57:04;;;;;;;1.63;0.87;;;;;;;15.11;60.35;100362.50;5063899;28;20184;-59
2022/05/26 02:00:00;;;;;;;0.90;0.90;;;;;;;15.01;60.68;100370.06;5069903;28;20627;-59
2022/05/26 02:02:30;;;;;;;1.03;0.80;;;;;;;15.12;60.65;100369.34;4963746;28;20227;-59
2022/05/26 02:05:04;;;;;;;2.40;0.90;;;;;;;15.12;60.55;100363.31;4957636;28;20188;-59
2022/05/26 02:07:42;;;;;;;1.83;0.70;;;;;;;15.25;60.15;100358.94;4956865;28;20233;-60
2022/05/26 02:10:13;;;;;;;1.70;1.33;;;;;;;15.14;60.07;100361.47;4947827;28;20267;-60
2022/05/26 02:12:45;;;;;;;1.40;0.80;;;;;;;15.04;61.08;100361.25;4973829;28;20200;-59
2022/05/26 02:15:36;;;;;;;1.07;1.00;;;;;;;14.99;61.08;100363.34;4956301;28;20284;-59
2022/05/26 02:18:31;;;;;;;3.47;0.97;;;;;;;14.89;62.15;100365.75;4972037;28;20239;-59
2022/05/26 02:21:03;;;;;;;0.97;0.80;;;;;;;14.81;62.44;100368.00;4958357;28;20774;-59
2022/05/26 02:23:36;;;;;;;1.00;0.90;;;;;;;14.71;63.56;100367.00;4957175;28;20544;-60
2022/05/26 02:26:04;;;;;;;3.37;1.30;;;;;;;14.79;63.78;100381.06;4957040;28;20192;-59
2022/05/26 02:29:51;;;;;;;2.73;0.83;;;;;;;14.82;63.84;100382.63;4957326;28;20255;-59
2022/05/26 02:31:26;;;;;;;1.57;0.87;;;;;;;14.60;64.21;100378.03;4961258;28;20224;-60
2022/05/26 02:33:56;;;;;;;1.23;0.80;;;;;;;14.61;64.31;100382.28;4942849;29;20192;-59
2022/05/26 02:36:24;;;;;;;5.57;1.23;;;;;;;14.45;65.28;100385.06;4953560;29;20184;-59
2022/05/26 02:38:49;;;;;;;3.93;0.90;;;;;;;14.36;65.92;100389.09;4995387;28;20202;-59
2022/05/26 02:41:14;;;;;;;1.67;0.80;;;;;;;14.23;67.09;100388.22;5043343;28;20220;-59
2022/05/26 02:43:40;;;;;;;1.73;0.80;;;;;;;14.16;67.64;100393.00;5053436;28;20538;-60
2022/05/26 02:46:31;;;;;;;2.20;0.70;;;;;;;14.05;68.55;100388.50;5052261;28;20170;-59
2022/05/26 02:49:32;;;;;;;0.87;0.80;;;;;;;14.05;68.42;100388.50;5039091;28;20172;-59
2022/05/26 02:52:28;;;;;;;1.60;1.00;;;;;;;13.88;69.77;100384.44;5058668;28;20235;-60
2022/05/26 02:55:23;;;;;;;1.23;0.90;;;;;;;13.86;70.64;100391.44;5032463;28;20205;-61
2022/05/26 02:58:21;;;;;;;1.87;1.00;;;;;;;13.82;71.10;100395.97;5033374;28;20265;-60
2022/05/26 03:00:58;;;;;;;2.70;0.93;;;;;;;13.88;71.18;100403.34;5021423;28;20311;-59
2022/05/26 03:03:35;;;;;;;1.20;1.03;;;;;;;13.84;71.83;100398.47;5040400;28;20182;-60
2022/05/26 03:06:40;;;;;;;2.77;0.90;;;;;;;13.78;71.90;100397.13;5035335;28;20173;-59
2022/05/26 03:09:07;;;;;;;1.67;0.90;;;;;;;13.86;71.87;100386.28;5048583;28;20220;-59
2022/05/26 03:11:50;;;;;;;2.30;1.03;;;;;;;13.75;72.54;100394.72;5041908;28;20251;-59
2022/05/26 03:14:17;;;;;;;0.80;0.70;;;;;;;13.71;73.22;100399.25;5067194;28;20181;-59
2022/05/26 03:16:43;;;;;;;1.70;0.70;;;;;;;13.59;73.80;100394.84;5044844;28;20224;-59
2022/05/26 03:19:09;;;;;;;2.90;1.10;;;;;;;13.54;74.80;100399.47;5051672;28;20236;-60
2022/05/26 03:21:35;;;;;;;4.77;0.77;;;;;;;13.53;75.14;100401.22;5044958;28;20239;-59
2022/05/26 03:24:01;;;;;;;0.73;0.73;;;;;;;13.56;75.85;100400.22;5055304;28;20253;-59
2022/05/26 03:26:26;;;;;;;2.17;0.90;;;;;;;13.49;75.76;100402.34;5052931;28;20173;-59
2022/05/26 03:28:52;;;;;;;1.63;1.00;;;;;;;13.48;75.89;100411.03;5053427;28;20174;-59
2022/05/26 03:31:17;;;;;;;2.03;0.83;;;;;;;13.47;76.29;100403.34;5032259;28;20313;-58
2022/05/26 03:41:55;;;;;;;1.50;0.80;;;;;;;13.36;77.84;100424.69;5073179;28;20281;-59
2022/05/26 03:44:21;;;;;;;1.23;0.83;;;;;;;13.20;78.43;100417.84;5055102;28;20173;-59
2022/05/26 03:46:48;;;;;;;0.50;0.50;;;;;;;13.25;78.79;100422.72;5051005;28;20181;-58
2022/05/26 03:49:13;;;;;;;2.20;0.93;;;;;;;13.28;79.12;100419.94;5044889;28;20189;-59
2022/05/26 03:51:39;;;;;;;0.80;0.80;;;;;;;13.19;80.21;100416.19;5054853;28;20691;-59
2022/05/26 03:54:04;;;;;;;2.93;1.00;;;;;;;13.15;80.84;100425.03;5055918;28;20181;-59
2022/05/26 03:56:30;;;;;;;5.10;1.07;;;;;;;13.22;80.21;100422.91;5047404;28;20202;-59
2022/05/26 03:58:55;;;;;;;1.00;0.80;;;;;;;13.21;80.45;100423.84;5033085;28;20194;-59
2022/05/26 04:01:21;;;;;;;1.67;0.70;;;;;;;13.29;80.39;100429.38;5032806;28;20225;-58
2022/05/26 04:03:46;;;;;;;1.13;1.00;;;;;;;13.33;80.52;100436.00;5031355;28;20229;-58
2022/05/26 04:06:12;;;;;;;1.27;0.70;;;;;;;13.36;80.77;100446.16;5032409;28;20543;-58
2022/05/26 04:08:37;;;;;;;1.00;0.87;;;;;;;13.39;81.07;100435.66;5032855;28;20189;-58
2022/05/26 04:11:02;;;;;;;1.53;0.77;;;;;;;13.48;81.16;100441.19;5038437;28;20229;-58
2022/05/26 04:13:31;;;;;;;3.90;0.90;;;;;;;13.46;81.02;100441.28;5055735;28;20189;-58
2022/05/26 04:15:56;;;;;;;1.27;1.10;;;;;;;13.62;80.71;100448.09;5052542;28;20173;-65
2022/05/26 04:18:21;;;;;;;4.60;0.80;;;;;;;13.54;80.63;100441.66;5067192;28;20307;-60
2022/05/26 04:20:47;;;;;;;0.67;0.67;;;;;;;13.58;80.21;100446.63;5054185;28;20238;-59
2022/05/26 04:23:12;;;;;;;4.00;0.93;;;;;;;13.64;80.82;100447.06;5072469;28;20189;-57
2022/05/26 04:25:37;;;;;;;2.03;0.70;;;;;;;13.69;79.72;100447.63;5051833;28;20177;-58
2022/05/26 04:28:03;;;;;;;1.77;1.20;;;;;;;13.81;79.84;100448.63;5051771;28;20181;-58
2022/05/26 04:30:28;;;;;;;3.93;0.93;;;;;;;13.90;78.88;100451.56;5043007;28;20382;-60
2022/05/26 04:32:53;;;;;;;1.93;0.73;;;;;;;13.88;79.11;100449.06;5077129;28;20173;-60
2022/05/26 04:35:19;;;;;;;1.80;1.10;;;;;;;14.01;78.47;100451.72;5051930;28;20184;-59
2022/05/26 04:37:45;;;;;;;1.87;0.90;;;;;;;13.97;79.23;100451.06;5051240;28;20174;-59
2022/05/26 04:40:11;;;;;;;1.20;1.10;;;;;;;14.08;79.00;100449.56;5043773;28;20200;-59
2022/05/26 04:42:38;;;;;;;1.90;0.80;;;;;;;14.03;78.66;100457.63;5081234;28;20552;-59
2022/05/26 04:45:06;;;;;;;1.33;0.90;;;;;;;14.14;78.49;100457.75;5048853;28;20676;-59
2022/05/26 04:47:31;;;;;;;2.27;1.00;;;;;;;14.19;79.14;100454.91;5042128;28;20267;-59
2022/05/26 04:49:56;;;;;;;2.17;0.90;;;;;;;14.16;79.26;100455.06;5051471;28;20285;-59
2022/05/26 04:52:23;;;;;;;1.37;0.90;;;;;;;14.29;78.17;100455.94;5050095;28;20240;-59
2022/05/26 04:54:50;;;;;;;2.07;0.87;;;;;;;14.27;79.18;100469.91;5030157;28;20181;-60
2022/05/26 04:57:18;;;;;;;0.67;0.67;;;;;;;14.41;77.77;100466.44;5029981;28;20272;-59
2022/05/26 04:59:44;;;;;;;1.17;0.90;;;;;;;14.48;77.81;100467.69;5029987;28;20231;-60
2022/05/26 05:02:12;;;;;;;1.20;0.80;;;;;;;14.53;78.27;100474.22;5036873;28;20712;-60
2022/05/26 05:04:40;;;;;;;1.23;0.80;;;;;;;14.64;76.94;100485.66;5046674;28;20232;-59
2022/05/26 05:07:07;;;;;;;0.97;0.67;;;;;;;14.73;77.12;100485.06;5031072;28;20502;-59
2022/05/26 05:09:32;;;;;;;1.00;0.90;;;;;;;14.82;76.71;100481.88;5034398;28;20178;-59
2022/05/26 05:11:57;;;;;;;1.57;0.90;;;;;;;14.90;76.23;100483.94;5068256;28;20673;-59
2022/05/26 05:14:22;;;;;;;1.67;0.90;;;;;;;14.81;76.95;100500.94;5052924;28;20255;-59
2022/05/26 05:16:48;;;;;;;4.30;1.03;;;;;;;14.90;76.48;100501.28;5050694;28;20554;-59
2022/05/26 05:19:18;;;;;;;2.47;0.70;;;;;;;15.01;76.29;100494.44;5050918;28;20229;-59
2022/05/26 05:21:58;;;;;;;1.87;1.00;;;;;;;15.22;74.65;100496.50;5038742;28;20276;-60
2022/05/26 05:24:25;;;;;;;2.83;0.97;;;;;;;15.31;74.11;100506.25;5065791;28;20666;-60
2022/05/26 05:27:00;;;;;;;0.80;0.80;;;;;;;15.39;73.34;100504.88;5048879;28;20185;-58
2022/05/26 05:29:30;;;;;;;0.87;0.70;;;;;;;15.40;73.80;100501.38;5036668;28;20193;-58
2022/05/26 05:32:01;;;;;;;0.80;0.70;;;;;;;15.48;73.52;100506.88;5054917;28;20311;-60
2022/05/26 05:34:35;;;;;;;1.27;0.70;;;;;;;15.73;72.78;100500.78;5029752;28;20174;-59
2022/05/26 05:37:01;;;;;;;0.80;0.80;;;;;;;16.27;69.22;100510.00;5029413;28;20186;-58
2022/05/26 05:39:26;;;;;;;1.07;0.70;;;;;;;16.56;67.77;100514.00;5030977;28;20212;-64
2022/05/26 05:41:56;;;;;;;2.37;0.80;;;;;;;16.73;66.71;100521.41;5049615;28;20577;-60
2022/05/26 05:44:22;;;;;;;0.90;0.60;;;;;;;17.04;65.50;100526.94;5057035;28;20278;-59
2022/05/26 05:46:53;;;;;;;0.77;0.77;;;;;;;17.22;63.08;100527.31;5050383;28;20270;-58
2022/05/26 05:49:20;;;;;;;1.50;0.70;;;;;;;17.31;63.94;100530.97;5050938;28;20216;-60
2022/05/26 05:51:46;;;;;;;1.47;0.70;;;;;;;17.33;63.18;100529.09;5039015;28;20391;-59
2022/05/26 05:54:11;;;;;;;1.40;0.77;;;;;;;17.57;62.06;100539.38;5050800;28;20516;-58
2022/05/26 05:56:36;;;;;;;2.93;0.90;;;;;;;17.45;61.76;100536.91;5050426;28;20201;-58
2022/05/26 05:59:02;;;;;;;0.57;0.57;;;;;;;17.39;63.56;100527.78;5050777;28;20197;-57
2022/05/26 06:01:27;;;;;;;0.50;0.40;;;;;;;17.65;61.61;100533.59;5050571;28;20240;-59
2022/05/26 06:03:52;;;;;;;0.77;0.60;;;;;;;17.64;61.54;100528.50;5032848;28;20181;-58
2022/05/26 06:06:18;;;;;;;1.17;0.60;;;;;;;17.93;61.28;100523.63;5030520;28;20182;-59
2022/05/26 06:08:44;;;;;;;1.33;0.70;;;;;;;17.97;61.66;100527.66;5030875;28;20178;-59
2022/05/26 06:11:09;;;;;;;1.80;0.60;;;;;;;18.11;61.06;100530.94;5038989;28;20315;-59
2022/05/26 06:13:34;;;;;;;2.27;0.83;;;;;;;18.20;60.11;100525.03;5044746;28;20264;-58
2022/05/26 06:16:00;;;;;;;0.83;0.60;;;;;;;18.12;60.29;100535.22;5050643;28;20177;-61
2022/05/26 06:18:25;;;;;;;1.63;0.70;;;;;;;17.96;60.02;100536.44;5049857;28;20228;-59
2022/05/26 06:20:50;;;;;;;3.63;0.70;;;;;;;18.20;60.81;100540.66;5045872;28;20236;-58
2022/05/26 06:23:20;;;;;;;8.23;1.10;;;;;;;18.37;59.20;100553.13;5049761;28;20177;-59
2022/05/26 06:25:46;;;;;;;2.03;0.80;;;;;;;18.59;58.95;100550.56;5045747;28;20527;-59
2022/05/26 06:30:55;;;;;;;4.53;0.80;;;;;;;18.41;59.42;100558.09;5034578;28;20267;-59
2022/05/26 06:38:48;;;;;;;1.03;0.70;;;;;;;18.87;57.45;100565.59;5040826;28;20219;-61
2022/05/26 06:44:02;;;;;;;2.30;0.83;;;;;;;19.04;57.13;100568.63;5054663;28;20196;-60
2022/05/26 06:46:28;;;;;;;1.47;0.63;;;;;;;18.74;57.54;100572.75;5047217;28;20255;-59
2022/05/26 06:48:53;;;;;;;2.70;0.77;;;;;;;19.12;56.99;100579.25;5034020;28;20182;-59
2022/05/26 06:51:18;;;;;;;1.43;0.77;;;;;;;19.61;55.86;100566.47;5051661;28;20296;-60
2022/05/26 06:53:44;;;;;;;0.90;0.43;;;;;;;19.60;54.18;100577.03;5059027;28;20223;-61
2022/05/26 06:56:09;;;;;;;0.77;0.60;;;;;;;19.42;54.97;100582.84;5036218;28;20178;-59
2022/05/26 06:58:34;;;;;;;1.80;0.70;;;;;;;19.92;53.31;100584.75;5031864;28;20259;-59
2022/05/26 07:01:00;;;;;;;1.70;0.57;;;;;;;20.13;52.31;100589.03;5046480;28;20290;-59
2022/05/26 07:03:26;;;;;;;1.27;0.63;;;;;;;20.22;51.68;100590.84;5048388;28;20197;-63
2022/05/26 07:05:52;;;;;;;1.50;0.70;;;;;;;20.37;51.10;100593.91;5038740;28;20182;-59
2022/05/26 07:08:18;;;;;;;1.03;0.50;;;;;;;20.66;50.32;100602.72;5048022;28;20225;-62
2022/05/26 07:10:45;;;;;;;0.90;0.43;;;;;;;20.16;51.63;100604.44;5030406;28;20228;-61
2022/05/26 07:13:12;;;;;;;2.87;0.50;;;;;;;20.38;52.01;100605.16;5057987;28;20181;-60
2022/05/26 07:15:37;;;;;;;2.20;0.80;;;;;;;20.96;50.19;100607.84;5051510;28;20381;-60
2022/05/26 07:18:06;;;;;;;1.33;0.50;;;;;;;20.90;49.86;100602.31;5064253;28;20305;-59
2022/05/26 07:20:33;;;;;;;1.60;0.77;;;;;;;21.54;49.22;100611.28;5040783;28;20231;-59
2022/05/26 07:22:59;;;;;;;2.90;0.67;;;;;;;22.96;45.24;100610.06;5046759;28;20188;-60
2022/05/26 07:25:24;;;;;;;1.73;0.60;;;;;;;23.34;42.73;100618.56;5052696;28;20230;-60
2022/05/26 07:27:49;;;;;;;0.77;0.60;;;;;;;23.76;42.22;100610.91;5038947;28;20760;-58
2022/05/26 07:30:15;;;;;;;0.63;0.50;;;;;;;23.23;42.18;100610.13;5016999;28;20605;-59
2022/05/26 07:32:40;;;;;;;2.43;0.70;;;;;;;23.28;43.52;100620.97;5050387;28;20189;-59
2022/05/26 07:35:06;;;;;;;2.07;0.70;;;;;;;23.31;43.54;100616.25;5043820;28;20232;-59
2022/05/26 07:42:59;;;;;;;0.57;0.40;;;;;;;23.40;42.19;100621.56;5060422;28;20197;-60
2022/05/26 07:45:25;;;;;;;1.83;0.70;;;;;;;23.91;41.15;100619.00;5052025;28;20181;-60
2022/05/26 07:47:50;;;;;;;2.10;1.13;;;;;;;24.18;41.38;100612.72;5050876;28;20554;-60
2022/05/26 07:50:20;;;;;;;1.55;1.23;;;;;;;24.65;39.13;100611.34;5045447;28;20181;-58
2022/05/26 07:52:50;;;;;;;1.38;0.60;;;;;;;25.25;38.03;100619.84;5076766;28;20528;-60
2022/05/26 07:55:18;;;;;;;1.50;0.70;;;;;;;26.00;36.54;100623.91;5038794;28;20177;-59
2022/05/26 07:57:44;;;;;;;2.17;0.65;;;;;;;25.83;37.36;100632.88;5036123;28;20265;-60
2022/05/26 08:00:10;;;;;;;0.88;0.65;;;;;;;24.49;39.16;100636.59;5022839;28;20209;-61
2022/05/26 08:02:35;;;;;;;2.28;0.50;;;;;;;24.06;39.68;100621.88;5061939;28;20179;-60
2022/05/26 08:05:00;;;;;;;0.55;0.30;;;;;;;24.15;41.45;100621.75;5032777;28;20185;-59
2022/05/26 08:07:26;;;;;;;1.48;0.60;;;;;;;24.04;40.59;100637.81;5031695;28;20177;-61
2022/05/26 08:09:51;;;;;;;2.97;0.98;;;;;;;23.79;40.62;100640.31;5022973;28;20188;-59
2022/05/26 08:12:16;;;;;;;7.25;1.58;;;;;;;23.39;41.09;100630.41;5053793;28;20885;-59
2022/05/26 08:14:43;;;;;;;1.00;0.60;;;;;;;23.12;42.00;100640.03;5048007;28;20205;-59
2022/05/26 08:17:12;;;;;;;2.17;0.82;;;;;;;23.40;41.26;100638.13;5049577;28;20181;-60
2022/05/26 08:19:39;;;;;;;1.67;0.70;;;;;;;24.90;38.13;100632.41;5052323;28;20307;-59
2022/05/26 08:22:04;;;;;;;4.13;0.80;;;;;;;25.70;36.86;100638.69;5056836;28;20227;-60
2022/05/26 08:24:30;;;;;;;2.13;0.73;;;;;;;26.58;35.15;100650.78;5024809;28;20174;-60
2022/05/26 08:26:58;;;;;;;1.17;0.50;;;;;;;26.42;35.02;100654.34;5009184;28;20198;-60
2022/05/26 08:29:24;;;;;;;3.80;0.70;;;;;;;26.45;35.09;100649.75;5009787;28;20880;-61
2022/05/26 08:31:50;;;;;;;3.30;0.60;;;;;;;26.45;35.73;100644.47;5060514;28;20247;-61
2022/05/26 08:34:17;;;;;;;1.00;0.55;;;;;;;26.25;34.91;100650.19;5044287;28;20196;-60
2022/05/26 08:36:42;;;;;;;2.05;0.50;;;;;;;25.92;36.05;100655.56;5041193;28;20575;-59
2022/05/26 08:39:08;;;;;;;2.00;0.75;;;;;;;26.31;36.76;100656.56;5038742;28;20285;-60
2022/05/26 08:41:40;;;;;;;2.20;0.70;;;;;;;25.93;35.71;100658.03;5052855;28;20315;-59
2022/05/26 08:44:11;;;;;;;0.65;0.57;;;;;;;25.57;36.74;100662.94;5043244;28;20177;-59
2022/05/26 08:46:48;;;;;;;0.50;0.50;;;;;;;25.29;37.14;100669.38;5043799;28;20253;-59
2022/05/26 08:49:33;;;;;;;1.55;0.70;;;;;;;26.07;35.18;100671.50;5049873;28;20204;-59
2022/05/26 08:52:06;;;;;;;0.93;0.60;;;;;;;26.10;35.13;100674.63;5043370;28;20409;-61
2022/05/26 08:54:39;;;;;;;1.98;0.70;;;;;;;25.91;35.11;100680.28;5050214;28;20268;-60
2022/05/26 08:57:10;;;;;;;0.98;0.40;;;;;;;25.63;35.37;100675.44;5033330;28;20192;-60
2022/05/26 08:59:40;;;;;;;0.82;0.50;;;;;;;25.12;37.80;100680.91;5049672;28;20205;-68
2022/05/26 09:02:21;;;;;;;1.75;0.77;;;;;;;24.90;38.68;100677.13;5041763;28;20233;-70
2022/05/26 09:04:47;;;;;;;4.80;0.60;;;;;;;24.70;39.33;100690.56;5035284;28;20197;-70
2022/05/26 09:12:59;;;;;;;3.58;0.77;;;;;;;25.40;38.10;100688.47;5021908;28;20221;-71
2022/05/26 09:15:28;;;;;;;2.00;0.60;;;;;;;26.49;36.38;100694.03;5032801;28;20193;-72
2022/05/26 09:17:54;;;;;;;2.42;0.68;;;;;;;27.00;35.35;100693.56;5048317;28;20225;-68
2022/05/26 09:20:33;;;;;;;5.35;1.38;;;;;;;27.79;33.39;100694.16;5045347;28;20594;-69
2022/05/26 09:23:23;;;;;;;2.03;1.20;;;;;;;27.61;32.50;100695.34;5062613;28;20205;-64
2022/05/26 09:25:55;;;;;;;2.13;1.15;;;;;;;27.73;33.68;100692.25;5030909;28;20276;-73
2022/05/26 09:28:45;;;;;;;1.70;0.57;;;;;;;27.11;35.24;100694.13;5062774;28;20178;-75
2022/05/26 09:31:17;;;;;;;2.10;0.82;;;;;;;26.27;33.64;100690.34;5055751;28;20237;-66
2022/05/26 09:33:43;;;;;;;1.88;0.82;;;;;;;25.07;34.40;100696.38;5030178;28;20209;-77
2022/05/26 09:36:23;;;;;;;2.55;0.73;;;;;;;26.16;32.97;100694.22;5015783;28;20272;-69
2022/05/26 09:38:49;;;;;;;0.75;0.40;;;;;;;29.56;28.49;100692.06;5020031;28;20206;-61
2022/05/26 09:41:16;;;;;;;1.90;1.00;;;;;;;30.96;25.64;100701.53;5039228;28;20220;-61
2022/05/26 09:43:48;;;;;;;1.70;0.75;;;;;;;30.88;24.42;100703.34;5044560;28;20633;-78
2022/05/26 09:46:16;;;;;;;0.45;0.43;;;;;;;28.49;28.60;100710.47;5063904;28;21661;-64
2022/05/26 09:48:44;;;;;;;1.60;0.68;;;;;;;27.32;30.85;100704.00;5030045;28;20185;-74
2022/05/26 09:51:25;;;;;;;2.25;0.52;;;;;;;25.32;33.86;100697.19;5037787;28;20219;-76
2022/05/26 09:53:51;;;;;;;2.75;0.52;;;;;;;24.16;34.81;100709.28;5050330;28;20226;-78
2022/05/26 09:56:26;;;;;;;0.40;0.30;;;;;;;23.48;36.42;100703.81;5030401;28;20264;-71
2022/05/26 09:58:51;;;;;;;1.25;0.60;;;;;;;23.17;35.54;100703.38;5034239;28;20302;-68
2022/05/26 10:01:23;;;;;;;2.55;0.70;;;;;;;22.62;36.17;100710.38;5042751;28;20224;-67
2022/05/26 10:04:20;;;;;;;1.33;0.50;;;;;;;22.32;36.61;100711.50;5046860;28;20185;-73
2022/05/26 10:07:03;;;;;;;2.37;0.60;;;;;;;22.35;36.61;100712.03;5031476;28;20195;-74
2022/05/26 10:09:36;;;;;;;2.87;0.60;;;;;;;22.29;37.58;100712.63;5033969;28;20268;-69
2022/05/26 10:12:07;;;;;;;0.83;0.70;;;;;;;22.14;38.22;100708.81;5058999;28;20260;-72
2022/05/26 10:14:51;;;;;;;2.20;0.70;;;;;;;21.82;37.75;100705.63;5066684;28;20201;-68
2022/05/26 10:17:49;;;;;;;0.60;0.47;;;;;;;21.91;37.04;100710.00;5048037;28;20232;-66
2022/05/26 10:20:55;;;;;;;2.67;0.67;;;;;;;22.15;37.75;100710.47;5032087;28;20214;-62
2022/05/26 10:23:38;;;;;;;2.53;0.63;;;;;;;22.61;37.60;100721.03;4984292;28;20201;-58
2022/05/26 10:26:31;;;;;;;0.97;0.53;;;;;;;22.96;36.20;100716.78;5022446;28;20245;-60
2022/05/26 10:29:14;;;;;;;2.63;0.80;;;;;;;24.16;35.14;100719.78;5014730;28;20179;-58
2022/05/26 10:31:54;;;;;;;1.47;0.87;;;;;;;25.92;31.92;100716.19;5047077;28;20227;-59
2022/05/26 10:34:41;;;;;;;2.77;1.20;;;;;;;27.94;29.80;100721.38;5036769;28;20193;-59
2022/05/26 10:37:19;;;;;;;0.80;0.50;;;;;;;27.65;29.45;100715.09;5033810;28;20171;-58
2022/05/26 10:40:13;;;;;;;1.42;0.80;;;;;;;26.62;30.57;100727.78;5052110;28;20688;-60
2022/05/26 10:42:51;;;;;;;0.70;0.40;;;;;;;25.49;32.10;100715.63;4971669;28;20304;-59
2022/05/26 10:45:18;;;;;;;3.03;0.90;;;;;;;25.74;33.03;100713.78;5064735;28;20265;-58
2022/05/26 10:48:11;;;;;;;0.63;0.50;;;;;;;25.51;33.11;100711.81;5033286;28;20321;-58
2022/05/26 10:50:46;;;;;;;0.88;0.50;;;;;;;24.97;35.49;100707.88;5040225;28;20305;-58
2022/05/26 10:53:14;;;;;;;0.45;0.40;;;;;;;25.13;35.09;100717.59;5052447;28;20264;-59
2022/05/26 10:55:55;;;;;;;5.72;0.73;;;;;;;24.34;35.34;100717.09;5053726;28;20177;-58
2022/05/26 10:58:32;;;;;;;1.45;0.70;;;;;;;24.86;37.37;100713.47;5052064;28;20185;-59
2022/05/26 11:01:03;;;;;;;1.00;0.60;;;;;;;24.31;34.96;100712.97;5031251;28;20370;-58
2022/05/26 11:03:41;;;;;;;2.75;0.75;;;;;;;24.30;36.03;100711.31;5039183;28;20224;-58
2022/05/26 11:06:20;;;;;;;2.42;0.60;;;;;;;24.25;35.95;100712.75;5048529;28;20169;-58
2022/05/26 11:09:08;;;;;;;0.40;0.40;;;;;;;23.38;36.82;100708.31;5033623;28;20260;-58
2022/05/26 11:11:38;;;;;;;1.70;0.50;;;;;;;23.50;37.05;100711.53;5041819;28;20312;-58
2022/05/26 11:17:44;;;;;;;0.90;0.70;;;;;;;23.35;37.76;100704.19;5058001;28;20243;-58
2022/05/26 11:20:17;;;;;;;1.67;1.20;;;;;;;23.50;37.41;100701.84;5045942;28;20266;-58
2022/05/26 11:22:45;;;;;;;1.50;0.60;;;;;;;23.48;38.15;100702.97;5051375;28;20236;-58
2022/05/26 11:25:15;;;;;;;1.07;0.67;;;;;;;23.55;36.82;100706.63;5053073;28;20284;-59
2022/05/26 11:27:56;;;;;;;1.23;0.60;;;;;;;23.39;36.55;100698.66;5066409;28;20178;-59
2022/05/26 11:36:14;;;;;;;1.70;0.70;;;;;;;23.30;37.15;100705.63;5034795;28;20192;-58
2022/05/26 11:38:47;;;;;;;2.27;0.60;;;;;;;23.04;37.01;100711.63;5031760;28;20216;-60
2022/05/26 11:41:25;;;;;;;2.03;0.70;;;;;;;22.82;37.63;100710.28;5036167;28;20629;-58
2022/05/26 11:44:01;;;;;;;1.17;0.70;;;;;;;22.78;37.06;100717.59;5051037;28;20264;-59
2022/05/26 11:47:12;;;;;;;3.40;0.77;;;;;;;22.48;36.92;100710.91;5046455;28;20185;-58
2022/05/26 11:49:44;;;;;;;1.63;0.80;;;;;;;21.99;38.30;100708.47;5032365;28;20193;-58
2022/05/26 11:52:11;;;;;;;2.57;1.37;;;;;;;22.27;39.36;100700.66;5047980;28;20248;-59
2022/05/26 11:54:55;;;;;;;1.40;0.80;;;;;;;21.95;37.63;100697.44;5054418;28;20190;-58
2022/05/26 11:57:43;;;;;;;1.27;0.80;;;;;;;22.09;38.85;100689.13;5033715;28;20205;-58
2022/05/26 12:00:14;;;;;;;2.53;0.80;;;;;;;22.14;38.78;100693.94;5021791;28;20201;-58
2022/05/26 12:02:40;;;;;;;3.93;0.73;;;;;;;22.33;38.72;100685.16;5049621;28;20196;-60
2022/05/26 12:05:42;;;;;;;0.73;0.60;;;;;;;22.60;37.62;100680.06;5051063;28;20174;-58
2022/05/26 12:08:42;;;;;;;3.33;0.90;;;;;;;22.50;36.76;100675.72;5052112;28;20173;-59
2022/05/26 12:11:09;;;;;;;1.87;0.80;;;;;;;22.55;37.89;100676.09;5059589;28;20691;-60
2022/05/26 12:13:38;;;;;;;1.37;0.73;;;;;;;22.09;38.41;100683.03;5057852;28;20350;-58
2022/05/26 12:16:09;;;;;;;2.47;0.80;;;;;;;22.50;37.31;100687.97;5050239;28;20632;-58
2022/05/26 12:19:02;;;;;;;2.87;0.87;;;;;;;22.61;36.81;100690.38;5045077;28;20229;-59
2022/05/26 12:21:31;;;;;;;2.00;0.87;;;;;;;22.94;36.35;100682.84;5043861;28;20278;-59
2022/05/26 12:23:58;;;;;;;1.30;0.73;;;;;;;23.67;35.59;100687.00;5035069;28;20186;-58
2022/05/26 12:26:30;;;;;;;2.47;1.00;;;;;;;23.55;36.54;100677.75;5052572;28;20184;-58
2022/05/26 12:29:33;;;;;;;1.20;0.50;;;;;;;23.67;36.37;100681.75;5061562;28;20178;-59